Time;durP1;ratioP1;P1;durP2;ratioP2;P2;SDS_P1;SDS_P2;PMS_P1;PMS_P2;Temp;Humidity;BMP_temperature;BMP_pressure;BME280_temperature;BME280_humidity;BME280_pressure;Samples;Min_cycle;Max_cycle;Signal;HPM_P1;HPM_P2
2021/08/24 00:01:07;;;;;;;7.30;6.70;;;17.80;99.90;;;;;;5003293;28;20195;-63
2021/08/24 00:03:32;;;;;;;7.80;7.10;;;17.80;99.90;;;;;;5008764;28;20165;-63
2021/08/24 00:05:58;;;;;;;8.87;6.43;;;17.70;99.90;;;;;;5008952;28;20245;-63
2021/08/24 00:08:23;;;;;;;7.57;6.97;;;17.70;99.90;;;;;;5008444;28;20636;-62
2021/08/24 00:10:52;;;;;;;9.50;8.60;;;17.70;99.90;;;;;;5010876;28;20216;-64
2021/08/24 00:13:20;;;;;;;7.93;7.20;;;17.60;99.90;;;;;;5008422;28;20175;-63
2021/08/24 00:15:47;;;;;;;7.77;6.60;;;17.70;99.90;;;;;;5011334;28;20952;-63
2021/08/24 00:21:35;;;;;;;6.83;6.23;;;17.80;99.90;;;;;;5010433;28;20406;-63
2021/08/24 00:24:01;;;;;;;8.00;6.10;;;17.80;99.90;;;;;;5013113;28;20426;-63
2021/08/24 00:26:26;;;;;;;7.60;6.90;;;17.90;99.90;;;;;;5011880;28;20433;-63
2021/08/24 00:28:52;;;;;;;7.00;6.30;;;17.90;99.90;;;;;;5013142;28;20172;-63
2021/08/24 00:31:17;;;;;;;6.40;5.80;;;17.90;99.90;;;;;;5013123;28;20287;-64
2021/08/24 00:33:43;;;;;;;6.53;6.03;;;17.90;99.90;;;;;;5013021;28;20218;-63
2021/08/24 00:36:16;;;;;;;6.73;6.23;;;17.90;99.90;;;;;;5013222;28;20191;-63
2021/08/24 00:38:42;;;;;;;8.20;7.50;;;17.70;99.90;;;;;;5012585;28;20203;-62
2021/08/24 00:41:11;;;;;;;8.10;7.27;;;17.60;99.90;;;;;;5012979;28;20550;-63
2021/08/24 00:43:39;;;;;;;6.40;5.80;;;17.70;99.90;;;;;;5013485;28;20420;-63
2021/08/24 00:46:32;;;;;;;6.67;6.07;;;17.70;99.90;;;;;;5013338;28;20775;-63
2021/08/24 00:48:59;;;;;;;9.00;8.10;;;17.80;99.90;;;;;;5012718;28;20835;-63
2021/08/24 00:51:26;;;;;;;9.10;8.20;;;17.90;99.90;;;;;;5013375;28;20441;-62
2021/08/24 00:53:52;;;;;;;10.07;6.00;;;17.90;99.90;;;;;;5013696;28;20900;-63
2021/08/24 00:56:18;;;;;;;6.23;5.73;;;17.80;99.90;;;;;;5013395;28;20537;-63
2021/08/24 00:58:43;;;;;;;7.27;6.67;;;17.80;99.90;;;;;;5012806;28;20829;-63
2021/08/24 01:01:10;;;;;;;8.23;6.57;;;17.90;99.90;;;;;;5014078;28;20422;-63
2021/08/24 01:03:39;;;;;;;8.67;7.90;;;17.90;99.90;;;;;;5016917;28;20165;-63
2021/08/24 01:06:17;;;;;;;7.77;7.13;;;18.00;99.90;;;;;;5016941;28;20498;-63
2021/08/24 01:09:20;;;;;;;8.27;6.80;;;18.00;99.90;;;;;;5016517;28;20414;-63
2021/08/24 01:12:01;;;;;;;6.20;5.70;;;18.00;99.90;;;;;;5016971;28;20429;-62
2021/08/24 01:14:39;;;;;;;8.60;6.73;;;17.90;99.90;;;;;;5017163;28;20418;-63
2021/08/24 01:17:15;;;;;;;7.33;6.70;;;17.90;99.90;;;;;;5016720;28;20476;-62
2021/08/24 01:19:59;;;;;;;7.77;7.07;;;17.90;99.90;;;;;;5016280;28;20457;-62
2021/08/24 01:22:45;;;;;;;7.50;6.90;;;18.00;99.90;;;;;;5016817;28;20418;-63
2021/08/24 01:25:14;;;;;;;8.17;7.47;;;17.90;99.90;;;;;;5016764;28;20386;-63
2021/08/24 01:27:51;;;;;;;6.87;6.33;;;17.90;99.90;;;;;;5016201;28;20962;-63
2021/08/24 01:30:40;;;;;;;6.40;5.90;;;17.90;99.90;;;;;;5016546;28;20379;-63
2021/08/24 01:33:20;;;;;;;7.17;5.40;;;17.90;99.90;;;;;;5016116;28;20965;-63
2021/08/24 01:36:06;;;;;;;8.93;7.20;;;17.90;99.90;;;;;;5018610;28;20512;-63
2021/08/24 01:38:39;;;;;;;8.03;6.33;;;17.90;99.90;;;;;;5015346;28;20972;-63
2021/08/24 01:41:21;;;;;;;9.10;7.30;;;17.70;99.90;;;;;;5016398;28;20422;-63
2021/08/24 01:44:05;;;;;;;7.40;6.53;;;17.50;99.90;;;;;;5015255;28;20402;-65
2021/08/24 01:46:39;;;;;;;7.03;6.20;;;17.50;99.90;;;;;;5016052;28;20489;-63
2021/08/24 01:49:05;;;;;;;6.70;6.10;;;17.50;99.90;;;;;;5015826;28;20465;-63
2021/08/24 01:51:44;;;;;;;8.13;7.33;;;17.50;99.90;;;;;;5015608;28;20443;-63
2021/08/24 01:54:31;;;;;;;7.80;7.03;;;17.50;99.90;;;;;;5016322;28;20394;-63
2021/08/24 01:56:58;;;;;;;6.27;5.67;;;17.60;99.90;;;;;;5016242;28;20435;-63
2021/08/24 01:59:50;;;;;;;7.20;6.60;;;17.50;99.90;;;;;;5015605;28;20429;-63
2021/08/24 02:02:20;;;;;;;5.70;5.10;;;17.50;99.90;;;;;;5005314;28;20438;-63
2021/08/24 02:04:57;;;;;;;6.77;6.23;;;17.50;99.90;;;;;;5015780;28;20385;-63
2021/08/24 02:07:27;;;;;;;7.10;6.33;;;17.50;99.90;;;;;;5015306;28;20421;-64
2021/08/24 02:09:57;;;;;;;6.30;5.70;;;17.50;99.90;;;;;;4998049;28;20501;-63
2021/08/24 02:12:25;;;;;;;8.17;7.37;;;17.50;99.90;;;;;;5016132;28;20476;-64
2021/08/24 02:14:51;;;;;;;6.70;6.00;;;17.50;99.90;;;;;;5016082;28;20408;-63
2021/08/24 02:17:21;;;;;;;5.60;5.10;;;17.50;99.90;;;;;;5015755;28;20453;-63
2021/08/24 02:20:10;;;;;;;6.10;5.53;;;17.50;99.90;;;;;;5014986;28;20467;-63
2021/08/24 02:22:40;;;;;;;6.87;6.37;;;17.50;99.90;;;;;;5015503;28;20418;-63
2021/08/24 02:25:13;;;;;;;6.07;5.47;;;17.50;99.90;;;;;;5015434;28;20500;-63
2021/08/24 02:27:50;;;;;;;5.70;5.30;;;17.50;99.90;;;;;;5015037;28;20394;-64
2021/08/24 02:30:16;;;;;;;6.83;5.53;;;17.40;99.90;;;;;;5015105;28;20402;-63
2021/08/24 02:32:45;;;;;;;6.57;5.97;;;17.30;99.90;;;;;;5015528;28;20402;-63
2021/08/24 02:35:22;;;;;;;5.17;4.77;;;17.20;99.90;;;;;;5015132;28;20178;-63
2021/08/24 02:38:02;;;;;;;5.73;5.20;;;17.10;99.90;;;;;;5014909;28;20393;-63
2021/08/24 02:40:55;;;;;;;6.63;5.57;;;17.00;99.90;;;;;;5015078;28;20445;-63
2021/08/24 02:43:41;;;;;;;7.00;5.33;;;16.80;99.90;;;;;;5015756;28;20914;-63
2021/08/24 02:46:12;;;;;;;7.07;6.47;;;16.60;99.90;;;;;;5014559;28;20422;-63
2021/08/24 02:48:40;;;;;;;7.13;6.53;;;16.60;99.90;;;;;;5015002;28;20421;-62
2021/08/24 02:51:07;;;;;;;5.10;4.60;;;16.40;99.90;;;;;;5014501;28;20806;-63
2021/08/24 02:53:35;;;;;;;6.57;5.80;;;16.30;99.90;;;;;;5014923;28;20420;-63
2021/08/24 02:56:01;;;;;;;7.20;5.73;;;16.20;99.90;;;;;;5014977;28;20820;-63
2021/08/24 02:58:26;;;;;;;6.13;5.53;;;16.20;99.90;;;;;;5014592;28;20441;-63
2021/08/24 03:00:52;;;;;;;6.77;5.80;;;16.10;99.90;;;;;;5015034;28;20188;-63
2021/08/24 03:03:18;;;;;;;6.97;5.57;;;16.00;99.90;;;;;;5015077;28;20166;-63
2021/08/24 03:05:44;;;;;;;10.80;6.10;;;15.90;99.90;;;;;;5014355;28;20167;-63
2021/08/24 03:08:11;;;;;;;6.03;5.43;;;15.80;99.90;;;;;;5014585;28;20179;-63
2021/08/24 03:10:42;;;;;;;7.80;6.13;;;15.70;99.90;;;;;;5014819;28;20434;-63
2021/08/24 03:13:19;;;;;;;6.30;5.63;;;15.70;99.90;;;;;;5014542;28;20398;-63
2021/08/24 03:15:48;;;;;;;5.30;4.80;;;15.70;99.90;;;;;;5014358;28;20964;-63
2021/08/24 03:18:31;;;;;;;5.90;5.40;;;15.60;99.90;;;;;;5014098;28;20466;-63
2021/08/24 03:21:01;;;;;;;9.53;6.20;;;15.50;99.90;;;;;;5013154;28;20862;-63
2021/08/24 03:23:29;;;;;;;7.43;5.70;;;15.40;99.90;;;;;;4994398;28;20400;-62
2021/08/24 03:25:55;;;;;;;7.00;6.03;;;15.50;99.90;;;;;;4994885;28;20416;-62
2021/08/24 03:28:23;;;;;;;6.70;6.10;;;15.40;99.90;;;;;;5007977;28;20426;-63
2021/08/24 03:30:50;;;;;;;6.63;6.00;;;15.40;99.90;;;;;;5038976;22;20450;-54
2021/08/24 03:33:16;;;;;;;6.07;5.47;;;15.40;99.90;;;;;;4994226;28;20512;-58
2021/08/24 03:35:42;;;;;;;6.53;5.93;;;15.30;99.90;;;;;;4994145;28;20471;-60
2021/08/24 03:38:08;;;;;;;7.47;5.83;;;15.20;99.90;;;;;;4994230;28;20556;-58
2021/08/24 03:40:35;;;;;;;6.10;5.50;;;15.20;99.90;;;;;;4994703;28;20191;-60
2021/08/24 03:43:01;;;;;;;6.00;5.43;;;15.20;99.90;;;;;;4994237;28;20528;-60
2021/08/24 03:45:26;;;;;;;7.43;5.80;;;15.20;99.90;;;;;;4994398;28;20418;-60
2021/08/24 03:47:52;;;;;;;6.80;5.30;;;15.20;99.90;;;;;;4992199;28;20513;-59
2021/08/24 03:50:18;;;;;;;6.53;5.30;;;15.10;99.90;;;;;;4991492;28;20179;-61
2021/08/24 03:52:44;;;;;;;7.27;6.53;;;15.20;99.90;;;;;;4976852;28;20282;-60
2021/08/24 03:55:10;;;;;;;6.63;5.93;;;15.10;99.90;;;;;;4993661;28;20510;-59
2021/08/24 03:57:36;;;;;;;5.90;5.30;;;15.00;99.90;;;;;;4994198;28;20183;-60
2021/08/24 04:00:04;;;;;;;6.70;6.00;;;15.00;99.90;;;;;;4993913;28;20481;-59
2021/08/24 04:02:30;;;;;;;6.77;6.10;;;15.00;99.90;;;;;;4994038;28;20483;-58
2021/08/24 04:04:56;;;;;;;6.50;5.77;;;15.00;99.90;;;;;;4993456;28;20417;-59
2021/08/24 04:07:22;;;;;;;8.30;7.50;;;15.00;99.90;;;;;;4993519;28;20513;-60
2021/08/24 04:09:50;;;;;;;7.93;7.10;;;15.00;99.90;;;;;;4993766;28;20175;-60
2021/08/24 04:12:16;;;;;;;6.10;5.60;;;14.90;99.90;;;;;;4993599;28;20532;-59
2021/08/24 04:14:42;;;;;;;8.70;7.90;;;14.90;99.90;;;;;;4994037;28;20845;-59
2021/08/24 04:17:08;;;;;;;7.40;5.77;;;14.80;99.90;;;;;;4993913;28;20198;-59
2021/08/24 04:19:33;;;;;;;6.63;6.03;;;14.80;99.90;;;;;;4994164;28;20633;-55
2021/08/24 04:21:59;;;;;;;6.67;6.07;;;14.80;99.90;;;;;;4994202;28;20434;-58
2021/08/24 04:24:25;;;;;;;7.10;6.40;;;14.90;99.90;;;;;;4992540;28;20180;-59
2021/08/24 04:26:50;;;;;;;7.10;6.40;;;14.90;99.90;;;;;;4992586;28;20690;-59
2021/08/24 04:29:16;;;;;;;7.60;6.83;;;14.90;99.90;;;;;;4993172;28;20194;-59
2021/08/24 04:31:42;;;;;;;7.33;6.63;;;14.90;99.90;;;;;;4993274;28;20215;-57
2021/08/24 04:34:08;;;;;;;9.10;8.20;;;14.90;99.90;;;;;;4992412;28;20269;-57
2021/08/24 04:36:33;;;;;;;6.30;5.73;;;14.90;99.90;;;;;;4992058;28;20570;-56
2021/08/24 04:38:59;;;;;;;7.07;6.20;;;14.90;99.90;;;;;;4993715;28;20450;-59
2021/08/24 04:41:25;;;;;;;8.73;6.63;;;14.90;99.90;;;;;;4993306;28;20649;-58
2021/08/24 04:43:50;;;;;;;8.23;7.03;;;14.90;99.90;;;;;;4993010;28;20319;-59
2021/08/24 04:46:16;;;;;;;7.17;6.50;;;15.00;99.90;;;;;;4993134;28;20247;-58
2021/08/24 04:48:42;;;;;;;7.07;6.47;;;15.00;99.90;;;;;;4992739;28;20186;-58
2021/08/24 04:51:07;;;;;;;5.97;5.47;;;15.00;99.90;;;;;;4992032;28;20213;-58
2021/08/24 04:53:33;;;;;;;11.43;6.77;;;15.00;99.90;;;;;;4993568;28;20180;-55
2021/08/24 04:55:59;;;;;;;8.17;6.70;;;14.90;99.90;;;;;;4993179;28;20446;-58
2021/08/24 04:58:24;;;;;;;10.07;8.90;;;14.90;99.90;;;;;;4992407;28;20178;-58
2021/08/24 05:00:50;;;;;;;6.83;6.13;;;14.90;99.90;;;;;;4993350;28;20638;-58
2021/08/24 05:03:15;;;;;;;9.13;8.23;;;14.90;99.90;;;;;;4992969;28;20179;-53
2021/08/24 05:05:41;;;;;;;7.93;7.10;;;14.80;99.90;;;;;;4992799;28;20184;-55
2021/08/24 05:08:07;;;;;;;8.27;7.50;;;14.80;99.90;;;;;;4993075;28;20178;-59
2021/08/24 05:10:33;;;;;;;8.27;7.30;;;14.90;99.90;;;;;;4993233;28;20234;-59
2021/08/24 05:13:00;;;;;;;8.13;7.43;;;14.90;99.90;;;;;;4991939;28;20197;-58
2021/08/24 05:15:26;;;;;;;9.27;8.40;;;15.00;99.90;;;;;;4993209;28;20945;-59
2021/08/24 05:17:53;;;;;;;9.20;8.27;;;15.00;99.90;;;;;;4992637;28;20798;-56
2021/08/24 05:20:19;;;;;;;8.87;8.07;;;15.00;99.90;;;;;;4991990;28;20514;-57
2021/08/24 05:22:46;;;;;;;10.60;8.30;;;15.00;99.90;;;;;;4992679;28;20439;-56
2021/08/24 05:25:15;;;;;;;7.60;6.87;;;14.90;99.90;;;;;;4992704;28;20857;-57
2021/08/24 05:27:41;;;;;;;9.87;8.87;;;15.00;99.90;;;;;;4991159;28;20484;-58
2021/08/24 05:30:10;;;;;;;9.50;8.60;;;15.00;99.90;;;;;;4992636;28;20826;-59
2021/08/24 05:32:36;;;;;;;8.60;7.80;;;15.10;99.90;;;;;;4990151;28;20299;-58
2021/08/24 05:35:01;;;;;;;10.13;8.90;;;15.10;99.90;;;;;;4992915;28;20447;-59
2021/08/24 05:37:27;;;;;;;9.00;8.20;;;15.10;99.90;;;;;;4992889;28;20460;-56
2021/08/24 05:39:53;;;;;;;9.40;8.50;;;15.10;99.90;;;;;;4992837;28;20233;-57
2021/08/24 05:42:18;;;;;;;7.63;6.97;;;15.20;99.90;;;;;;4991752;28;20236;-56
2021/08/24 05:44:45;;;;;;;8.37;7.57;;;15.30;99.90;;;;;;4992954;28;20264;-59
2021/08/24 05:47:11;;;;;;;8.53;7.73;;;15.40;99.90;;;;;;4993133;28;20369;-56
2021/08/24 05:49:37;;;;;;;9.30;7.67;;;15.60;99.90;;;;;;4995413;28;20514;-60
2021/08/24 05:52:03;;;;;;;8.10;7.40;;;15.60;99.90;;;;;;4995946;28;20214;-55
2021/08/24 05:54:29;;;;;;;7.27;6.57;;;15.70;99.90;;;;;;4994716;28;20943;-58
2021/08/24 05:56:55;;;;;;;7.73;6.93;;;16.00;99.90;;;;;;4996532;28;20505;-60
2021/08/24 05:59:20;;;;;;;8.70;7.90;;;16.10;99.90;;;;;;4995837;28;20470;-59
2021/08/24 06:01:46;;;;;;;7.07;6.47;;;16.20;99.90;;;;;;4995503;28;20441;-59
2021/08/24 06:04:12;;;;;;;6.60;6.00;;;16.40;99.90;;;;;;4995884;28;20212;-55
2021/08/24 06:06:40;;;;;;;8.30;7.43;;;16.40;99.90;;;;;;4995995;28;20170;-57
2021/08/24 06:09:09;;;;;;;9.33;8.40;;;16.50;99.90;;;;;;4996141;28;20245;-59
2021/08/24 06:11:38;;;;;;;7.43;6.80;;;16.40;99.90;;;;;;4994930;28;20529;-59
2021/08/24 06:14:06;;;;;;;7.50;6.80;;;16.40;99.90;;;;;;4995927;28;20417;-58
2021/08/24 06:16:32;;;;;;;8.73;7.93;;;16.40;99.90;;;;;;4995929;28;20928;-59
2021/08/24 06:18:58;;;;;;;8.20;7.50;;;16.40;99.90;;;;;;4995660;28;20425;-60
2021/08/24 06:21:24;;;;;;;8.97;7.10;;;16.50;99.90;;;;;;4995421;28;20442;-59
2021/08/24 06:23:50;;;;;;;7.77;7.07;;;16.60;99.90;;;;;;4996369;28;20676;-59
2021/08/24 06:26:16;;;;;;;9.50;8.63;;;16.70;99.90;;;;;;4994569;28;20241;-59
2021/08/24 06:28:42;;;;;;;8.70;7.97;;;16.80;99.90;;;;;;4995054;28;20236;-57
2021/08/24 06:31:09;;;;;;;8.93;7.80;;;16.80;99.90;;;;;;4995201;28;20473;-59
2021/08/24 06:33:38;;;;;;;8.00;7.27;;;16.80;99.90;;;;;;4994343;28;20238;-59
2021/08/24 06:36:05;;;;;;;8.60;7.67;;;16.80;99.90;;;;;;4994398;28;20474;-58
2021/08/24 06:38:31;;;;;;;7.03;6.43;;;17.00;99.90;;;;;;4993090;28;20425;-58
2021/08/24 06:40:58;;;;;;;8.80;6.17;;;16.90;99.90;;;;;;4993369;28;20976;-55
2021/08/24 06:43:24;;;;;;;6.10;5.53;;;16.80;99.90;;;;;;4994404;28;20427;-58
2021/08/24 06:45:49;;;;;;;6.23;5.37;;;16.80;99.90;;;;;;4995158;28;20482;-58
2021/08/24 06:48:16;;;;;;;6.50;4.80;;;16.60;99.90;;;;;;4995342;28;20173;-58
2021/08/24 06:50:43;;;;;;;6.23;5.40;;;16.80;99.90;;;;;;4994939;28;20251;-57
2021/08/24 06:53:09;;;;;;;6.37;5.80;;;17.20;99.90;;;;;;4995402;28;20426;-59
2021/08/24 06:55:37;;;;;;;7.37;5.80;;;17.00;99.90;;;;;;4995483;28;20452;-57
2021/08/24 06:58:04;;;;;;;7.73;6.30;;;16.70;99.90;;;;;;4995049;28;20413;-58
2021/08/24 07:00:30;;;;;;;6.10;4.87;;;16.60;99.90;;;;;;4993654;28;20441;-57
2021/08/24 07:02:56;;;;;;;6.27;5.70;;;16.80;99.90;;;;;;4994780;28;20449;-58
2021/08/24 07:05:28;;;;;;;6.60;5.43;;;16.70;99.90;;;;;;4994688;28;20172;-59
2021/08/24 07:07:54;;;;;;;6.97;6.27;;;16.70;99.90;;;;;;4992939;28;20185;-59
2021/08/24 07:10:21;;;;;;;5.80;5.30;;;16.50;99.90;;;;;;4994688;28;20423;-59
2021/08/24 07:12:47;;;;;;;9.07;6.23;;;16.60;99.90;;;;;;4994850;28;20443;-58
2021/08/24 07:15:15;;;;;;;5.40;4.80;;;16.70;99.90;;;;;;4983685;28;20423;-57
2021/08/24 07:17:41;;;;;;;6.43;5.67;;;16.80;99.90;;;;;;4977051;28;20469;-59
2021/08/24 07:20:09;;;;;;;4.90;4.43;;;16.50;99.90;;;;;;4994511;28;20462;-57
2021/08/24 07:22:35;;;;;;;7.40;5.03;;;16.00;99.90;;;;;;4994499;28;20422;-54
2021/08/24 07:25:03;;;;;;;5.67;5.07;;;16.10;99.90;;;;;;4994683;28;20408;-57
2021/08/24 07:27:28;;;;;;;6.03;5.43;;;16.30;99.90;;;;;;4994600;28;20447;-58
2021/08/24 07:29:54;;;;;;;5.20;4.40;;;16.50;99.90;;;;;;4993948;28;20453;-56
2021/08/24 07:32:20;;;;;;;5.40;4.90;;;16.50;99.90;;;;;;4994032;28;20245;-59
2021/08/24 07:34:45;;;;;;;7.33;5.20;;;16.60;99.90;;;;;;4994330;28;20221;-59
2021/08/24 07:37:11;;;;;;;6.07;5.50;;;16.40;99.90;;;;;;4991035;28;20207;-59
2021/08/24 07:39:36;;;;;;;6.57;5.97;;;16.60;99.90;;;;;;4994811;28;20172;-59
2021/08/24 07:42:02;;;;;;;5.33;4.83;;;16.70;99.90;;;;;;4993787;28;20278;-58
2021/08/24 07:44:31;;;;;;;7.90;4.43;;;16.60;99.90;;;;;;4993918;28;20182;-59
2021/08/24 07:46:58;;;;;;;5.57;4.97;;;16.60;99.90;;;;;;4994019;28;20181;-59
2021/08/24 07:49:24;;;;;;;6.30;5.73;;;16.40;99.90;;;;;;4994180;28;20426;-54
2021/08/24 07:51:49;;;;;;;5.43;4.93;;;16.30;99.90;;;;;;4993921;28;20432;-58
2021/08/24 07:54:15;;;;;;;6.47;5.00;;;16.40;99.90;;;;;;4994264;28;20179;-59
2021/08/24 07:56:40;;;;;;;6.23;5.50;;;16.40;99.90;;;;;;4993908;28;20227;-59
2021/08/24 07:59:06;;;;;;;5.93;4.77;;;16.50;99.90;;;;;;4994678;28;20525;-59
2021/08/24 08:01:32;;;;;;;6.20;5.33;;;16.70;99.90;;;;;;4994195;28;20268;-59
2021/08/24 08:03:58;;;;;;;6.03;5.43;;;17.10;99.90;;;;;;4994361;28;20164;-55
2021/08/24 08:06:23;;;;;;;5.17;4.60;;;17.30;99.90;;;;;;4990554;28;20419;-59
2021/08/24 08:08:49;;;;;;;6.50;4.00;;;17.40;99.90;;;;;;4994053;28;20184;-57
2021/08/24 08:11:15;;;;;;;5.93;4.87;;;17.60;99.90;;;;;;4993551;28;20196;-59
2021/08/24 08:13:41;;;;;;;5.70;4.90;;;17.60;99.90;;;;;;4993986;28;20560;-59
2021/08/24 08:16:07;;;;;;;5.50;4.50;;;17.40;99.90;;;;;;4993432;28;20278;-58
2021/08/24 08:18:32;;;;;;;4.70;4.30;;;17.10;99.90;;;;;;4993717;28;20561;-58
2021/08/24 08:20:58;;;;;;;5.00;4.60;;;17.10;99.90;;;;;;4993002;28;20448;-59
2021/08/24 08:23:24;;;;;;;4.63;4.23;;;17.50;99.90;;;;;;4993469;28;20207;-58
2021/08/24 08:25:50;;;;;;;6.30;4.70;;;17.70;99.90;;;;;;4993891;28;20187;-59
2021/08/24 08:28:16;;;;;;;4.77;4.27;;;17.60;99.90;;;;;;4994128;28;20411;-59
2021/08/24 08:30:44;;;;;;;5.03;4.63;;;17.70;99.90;;;;;;4993712;28;20436;-58
2021/08/24 08:33:11;;;;;;;4.73;4.20;;;18.00;99.90;;;;;;4993068;28;20427;-59
2021/08/24 08:35:37;;;;;;;5.53;4.43;;;17.80;99.90;;;;;;4990226;28;20439;-58
2021/08/24 08:38:03;;;;;;;4.73;4.33;;;18.10;99.90;;;;;;4992491;28;20924;-60
2021/08/24 08:40:53;;;;;;;5.63;4.33;;;17.90;99.90;;;;;;4993172;28;20415;-58
2021/08/24 08:43:39;;;;;;;5.90;4.40;;;17.70;99.90;;;;;;4993442;28;20455;-58
2021/08/24 08:46:48;;;;;;;4.60;4.03;;;18.10;99.90;;;;;;4993324;28;20458;-59
2021/08/24 08:49:36;;;;;;;4.20;3.80;;;18.20;99.90;;;;;;4965276;28;20438;-58
2021/08/24 08:52:13;;;;;;;4.50;3.90;;;18.30;99.90;;;;;;4984614;28;20530;-58
2021/08/24 08:55:06;;;;;;;5.23;4.50;;;18.20;99.90;;;;;;4989232;28;20637;-59
2021/08/24 08:57:41;;;;;;;4.33;4.00;;;17.80;99.90;;;;;;4993439;28;20455;-55
2021/08/24 09:00:14;;;;;;;5.50;4.83;;;18.00;99.90;;;;;;4993675;28;20483;-58
2021/08/24 09:02:46;;;;;;;4.30;4.00;;;18.10;99.90;;;;;;4993234;28;20439;-58
2021/08/24 09:05:14;;;;;;;5.47;4.97;;;18.00;99.90;;;;;;4993317;28;20424;-59
2021/08/24 09:07:45;;;;;;;5.20;4.80;;;17.70;99.90;;;;;;4993773;28;20412;-59
2021/08/24 09:10:19;;;;;;;5.90;4.80;;;17.50;99.90;;;;;;4993584;28;20408;-58
2021/08/24 09:12:57;;;;;;;5.57;5.03;;;17.50;99.90;;;;;;4993530;28;20486;-58
2021/08/24 09:15:36;;;;;;;5.10;4.70;;;17.60;99.90;;;;;;4993183;28;20427;-58
2021/08/24 09:18:04;;;;;;;4.50;4.10;;;17.60;99.90;;;;;;4993609;28;20380;-59
2021/08/24 09:20:34;;;;;;;5.63;4.93;;;17.80;99.90;;;;;;4993260;28;20970;-56
2021/08/24 09:23:02;;;;;;;5.53;4.93;;;17.90;99.90;;;;;;4995590;28;20427;-57
2021/08/24 09:25:46;;;;;;;4.43;4.03;;;18.10;99.90;;;;;;4993048;28;20765;-58
2021/08/24 09:28:30;;;;;;;4.87;4.47;;;18.00;99.90;;;;;;4997337;28;20442;-58
2021/08/24 09:30:56;;;;;;;11.10;8.20;;;18.20;99.90;;;;;;4996783;28;20411;-59
2021/08/24 09:33:22;;;;;;;4.47;4.07;;;18.30;99.90;;;;;;5023825;22;20486;-63
2021/08/24 09:35:48;;;;;;;3.93;3.63;;;18.40;99.90;;;;;;5017742;28;20493;-63
2021/08/24 09:38:21;;;;;;;4.40;4.00;;;18.50;99.90;;;;;;5015745;28;20451;-63
2021/08/24 09:40:57;;;;;;;4.70;4.27;;;18.70;99.90;;;;;;5016584;28;20742;-63
2021/08/24 09:43:37;;;;;;;5.23;3.97;;;18.50;99.90;;;;;;5015883;28;20438;-63
2021/08/24 09:46:16;;;;;;;4.87;4.47;;;18.60;99.90;;;;;;5015724;28;20418;-63
2021/08/24 09:48:55;;;;;;;4.60;3.90;;;18.70;99.90;;;;;;5016315;28;20441;-63
2021/08/24 09:51:38;;;;;;;4.40;3.67;;;18.50;99.90;;;;;;5016005;28;20434;-62
2021/08/24 09:54:10;;;;;;;4.23;3.83;;;18.70;99.90;;;;;;5016028;28;20419;-62
2021/08/24 09:56:40;;;;;;;4.13;3.73;;;19.00;99.90;;;;;;5015849;28;20508;-62
2021/08/24 09:59:05;;;;;;;6.50;4.30;;;18.90;99.90;;;;;;5016176;28;20403;-63
2021/08/24 10:01:46;;;;;;;6.10;4.43;;;18.60;99.90;;;;;;5015812;28;20426;-63
2021/08/24 10:04:12;;;;;;;5.10;4.17;;;18.90;99.90;;;;;;5015635;28;20669;-63
2021/08/24 10:06:59;;;;;;;4.53;4.13;;;19.00;99.90;;;;;;5015640;28;20418;-62
2021/08/24 10:09:35;;;;;;;4.50;4.10;;;19.50;99.90;;;;;;5015973;28;20267;-62
2021/08/24 10:12:22;;;;;;;4.67;4.27;;;19.10;99.90;;;;;;4996030;28;20392;-62
2021/08/24 10:14:50;;;;;;;4.87;4.30;;;18.70;99.90;;;;;;4996334;28;20444;-63
2021/08/24 10:17:29;;;;;;;7.23;4.33;;;18.40;99.90;;;;;;5004135;28;20469;-63
2021/08/24 10:19:57;;;;;;;5.63;4.50;;;18.30;99.90;;;;;;5014738;28;20472;-63
2021/08/24 10:22:26;;;;;;;4.37;3.50;;;18.20;99.90;;;;;;5014672;28;20471;-64
2021/08/24 10:24:58;;;;;;;4.47;3.87;;;18.40;99.90;;;;;;5013056;28;20832;-62
2021/08/24 10:27:32;;;;;;;4.73;4.30;;;19.00;99.90;;;;;;5017400;28;20755;-62
2021/08/24 10:30:08;;;;;;;4.67;4.13;;;19.30;99.90;;;;;;5012930;28;20485;-63
2021/08/24 10:32:43;;;;;;;5.57;4.37;;;19.20;99.90;;;;;;5012813;28;20445;-63
2021/08/24 10:35:22;;;;;;;4.53;4.10;;;18.90;99.90;;;;;;5012103;28;20876;-63
2021/08/24 10:37:49;;;;;;;4.90;4.40;;;18.90;99.90;;;;;;5012918;28;20767;-63
2021/08/24 10:40:27;;;;;;;4.50;4.10;;;18.70;99.90;;;;;;5013042;28;20412;-63
2021/08/24 10:43:11;;;;;;;4.60;4.20;;;18.60;99.90;;;;;;5012726;28;20435;-63
2021/08/24 10:45:39;;;;;;;5.40;4.90;;;18.60;99.90;;;;;;5015332;28;20426;-62
2021/08/24 10:48:12;;;;;;;7.43;4.57;;;18.90;99.90;;;;;;5014940;28;20398;-62
2021/08/24 10:51:00;;;;;;;4.70;4.30;;;19.20;99.90;;;;;;5014671;28;20431;-62
2021/08/24 10:53:41;;;;;;;5.17;4.77;;;19.20;99.90;;;;;;5014952;28;21054;-62
2021/08/24 10:56:18;;;;;;;5.43;4.93;;;19.20;99.90;;;;;;5013814;28;20492;-62
2021/08/24 10:59:00;;;;;;;4.27;3.97;;;19.30;99.90;;;;;;5015036;28;20384;-62
2021/08/24 11:01:44;;;;;;;4.40;4.00;;;19.20;99.90;;;;;;5014511;28;20502;-62
2021/08/24 11:04:28;;;;;;;4.10;3.70;;;19.20;99.90;;;;;;5015036;28;20868;-62
2021/08/24 11:07:27;;;;;;;4.07;3.63;;;19.30;99.90;;;;;;5014448;28;20406;-61
2021/08/24 11:10:05;;;;;;;4.90;4.50;;;19.10;99.90;;;;;;5014607;28;20486;-61
2021/08/24 11:12:45;;;;;;;5.23;4.80;;;19.30;99.90;;;;;;5014567;28;20419;-62
2021/08/24 11:15:35;;;;;;;5.77;4.10;;;19.40;99.90;;;;;;5014802;28;20481;-62
2021/08/24 11:18:21;;;;;;;4.30;3.90;;;19.30;99.90;;;;;;5014620;28;20387;-62
2021/08/24 11:21:00;;;;;;;4.37;3.93;;;19.20;99.90;;;;;;5004907;28;20792;-62
2021/08/24 11:23:47;;;;;;;4.60;4.20;;;19.00;99.90;;;;;;5014540;28;20411;-62
2021/08/24 11:26:33;;;;;;;4.33;4.03;;;19.30;99.90;;;;;;5014651;28;20383;-62
2021/08/24 11:29:07;;;;;;;6.57;3.70;;;18.80;99.90;;;;;;5014647;28;20380;-62
2021/08/24 11:31:51;;;;;;;4.17;3.77;;;19.00;99.90;;;;;;5014497;28;20414;-62
2021/08/24 11:34:50;;;;;;;4.87;4.47;;;18.70;99.90;;;;;;5014023;28;20473;-61
2021/08/24 11:37:28;;;;;;;4.77;4.33;;;18.70;99.90;;;;;;5003349;28;21045;-62
2021/08/24 11:40:01;;;;;;;4.67;4.30;;;19.20;99.90;;;;;;5014358;28;20428;-62
2021/08/24 11:42:47;;;;;;;4.23;3.83;;;19.20;99.90;;;;;;5013950;28;20443;-61
2021/08/24 11:45:23;;;;;;;4.03;3.63;;;19.40;99.90;;;;;;5013756;28;20437;-62
2021/08/24 11:48:00;;;;;;;4.77;4.27;;;19.40;99.90;;;;;;5013975;28;20379;-62
2021/08/24 11:50:38;;;;;;;6.63;4.03;;;19.40;99.90;;;;;;5013621;28;20509;-62
2021/08/24 11:53:12;;;;;;;4.57;4.20;;;20.00;99.90;;;;;;5013336;28;20461;-62
2021/08/24 11:55:40;;;;;;;4.00;3.70;;;20.10;99.90;;;;;;5013363;28;20537;-62
2021/08/24 11:58:27;;;;;;;4.77;4.20;;;20.60;99.90;;;;;;5013825;28;20403;-62
2021/08/24 12:00:56;;;;;;;4.30;3.90;;;20.80;99.90;;;;;;5014331;28;20725;-62
2021/08/24 12:03:23;;;;;;;4.70;4.30;;;20.80;99.90;;;;;;5013405;28;20442;-63
2021/08/24 12:05:56;;;;;;;4.00;3.70;;;22.10;99.90;;;;;;5013737;28;20406;-62
2021/08/24 12:08:26;;;;;;;3.80;3.50;;;22.30;99.90;;;;;;5013975;28;20433;-62
2021/08/24 12:10:51;;;;;;;3.73;3.43;;;21.50;99.90;;;;;;5013539;28;20407;-62
2021/08/24 12:13:39;;;;;;;3.50;3.20;;;21.30;99.90;;;;;;5013299;28;20587;-62
2021/08/24 12:16:18;;;;;;;4.60;4.10;;;21.40;99.90;;;;;;5013566;28;20637;-61
2021/08/24 12:18:45;;;;;;;4.27;3.87;;;21.00;99.90;;;;;;5013630;28;20494;-62
2021/08/24 12:21:33;;;;;;;6.57;3.97;;;20.60;99.90;;;;;;5013368;28;20411;-62
2021/08/24 12:24:24;;;;;;;5.50;3.27;;;20.90;99.90;;;;;;5013864;28;20458;-62
2021/08/24 12:26:51;;;;;;;5.37;4.30;;;21.10;99.90;;;;;;5012914;28;20460;-63
2021/08/24 12:29:32;;;;;;;4.07;3.77;;;21.00;99.90;;;;;;5011524;28;20415;-63
2021/08/24 12:32:00;;;;;;;5.40;4.90;;;21.10;99.90;;;;;;4993646;28;20427;-62
2021/08/24 12:34:34;;;;;;;4.47;3.70;;;20.90;99.90;;;;;;4993536;28;20420;-62
2021/08/24 12:37:26;;;;;;;5.60;4.80;;;20.80;99.90;;;;;;4993607;28;20446;-60
2021/08/24 12:40:21;;;;;;;5.43;5.03;;;20.50;99.90;;;;;;4987140;28;20477;-62
2021/08/24 12:43:21;;;;;;;5.67;5.17;;;20.00;99.90;;;;;;5011571;28;20441;-62
2021/08/24 12:45:46;;;;;;;5.10;4.70;;;19.90;99.90;;;;;;5012661;28;20490;-62
2021/08/24 12:48:19;;;;;;;6.30;4.60;;;19.90;99.90;;;;;;5013108;28;20483;-64
2021/08/24 12:50:59;;;;;;;8.23;4.70;;;19.90;99.90;;;;;;5012897;28;20175;-63
2021/08/24 12:53:28;;;;;;;4.37;3.97;;;19.90;99.90;;;;;;5012424;28;20430;-63
2021/08/24 12:55:54;;;;;;;5.03;4.63;;;19.90;99.90;;;;;;5012682;28;20450;-65
2021/08/24 12:58:24;;;;;;;5.10;4.60;;;19.90;99.90;;;;;;5016315;28;20414;-63
2021/08/24 13:01:14;;;;;;;4.50;4.20;;;19.90;99.90;;;;;;5016411;28;20415;-63
2021/08/24 13:04:07;;;;;;;5.40;4.57;;;19.70;99.90;;;;;;5016881;28;20469;-63
2021/08/24 13:07:14;;;;;;;5.27;4.43;;;19.80;99.90;;;;;;5016733;28;20818;-64
2021/08/24 13:09:41;;;;;;;7.73;5.43;;;20.20;99.90;;;;;;5016696;28;20422;-64
2021/08/24 13:12:07;;;;;;;5.40;4.90;;;20.10;99.90;;;;;;5017026;28;20402;-63